Time;durP1;ratioP1;P1;durP2;ratioP2;P2;SDS_P1;SDS_P2;PMS_P1;PMS_P2;Temp;Humidity;BMP_temperature;BMP_pressure;BME280_temperature;BME280_humidity;BME280_pressure;Samples;Min_cycle;Max_cycle;Signal;HPM_P1;HPM_P2
2021/08/03 00:00:13;;;;;;;;;0.00;0.00;;;;;18.93;67.00;101037.78;6091232;23;45577;-75
2021/08/03 00:02:44;;;;;;;;;0.00;0.00;;;;;18.94;66.58;101032.47;6090080;23;46392;-74
2021/08/03 00:05:11;;;;;;;;;0.25;0.25;;;;;18.93;67.07;101028.09;6090757;23;45352;-75
2021/08/03 00:07:38;;;;;;;;;0.00;0.00;;;;;18.96;66.80;101027.19;6090496;23;45210;-75
2021/08/03 00:10:06;;;;;;;;;2.00;0.00;;;;;18.99;66.69;101027.97;6090726;23;45437;-75
2021/08/03 00:12:31;;;;;;;;;0.00;0.00;;;;;18.90;67.13;101017.63;6090491;23;45332;-75
2021/08/03 00:14:56;;;;;;;;;1.00;0.00;;;;;19.01;67.55;101035.00;6088382;23;45318;-75
2021/08/03 00:17:25;;;;;;;;;0.00;0.00;;;;;18.99;67.52;101035.88;6088337;23;50175;-75
2021/08/03 00:19:53;;;;;;;;;0.00;0.00;;;;;18.87;67.50;101020.34;6090356;23;45266;-75
2021/08/03 00:22:22;;;;;;;;;0.00;0.00;;;;;18.85;67.89;101032.66;6089949;23;45431;-74
2021/08/03 00:24:48;;;;;;;;;0.00;0.00;;;;;18.63;67.46;100995.34;6090137;23;45422;-74
2021/08/03 00:27:14;;;;;;;;;0.00;0.00;;;;;18.74;68.03;101012.66;6090107;23;45375;-75
2021/08/03 00:29:40;;;;;;;;;0.00;0.00;;;;;18.77;67.78;101026.72;6090627;23;45345;-75
2021/08/03 00:32:06;;;;;;;;;0.00;0.00;;;;;18.65;68.31;101014.66;6089940;23;45241;-76
2021/08/03 00:34:31;;;;;;;;;0.00;0.00;;;;;18.52;67.59;101001.69;6088093;23;45320;-75
2021/08/03 00:36:57;;;;;;;;;0.00;0.00;;;;;18.47;68.30;100996.53;6089669;23;45248;-74
2021/08/03 00:39:23;;;;;;;;;0.00;0.00;;;;;18.61;68.28;101014.72;6090884;23;46014;-74
2021/08/03 00:41:55;;;;;;;;;0.00;0.00;;;;;18.52;68.38;101011.38;6089758;23;45304;-75
2021/08/03 00:44:38;;;;;;;;;0.00;0.00;;;;;18.41;67.98;100995.78;6088261;23;46121;-75
2021/08/03 00:47:04;;;;;;;;;0.00;0.00;;;;;18.40;68.46;100987.00;6089134;23;45298;-74
2021/08/03 00:49:29;;;;;;;;;0.50;0.00;;;;;18.44;68.14;100993.94;6090219;23;45334;-75
2021/08/03 00:51:54;;;;;;;;;0.00;0.00;;;;;18.44;68.81;100995.72;6089743;23;45235;-74
2021/08/03 00:54:20;;;;;;;;;1.00;0.00;;;;;18.44;68.61;100996.59;6089546;23;48661;-74
2021/08/03 00:56:45;;;;;;;;;0.00;0.00;;;;;18.47;68.96;100988.63;6089982;23;45514;-74
2021/08/03 00:59:12;;;;;;;;;0.00;0.00;;;;;18.55;68.31;100995.50;6089927;23;47180;-74
2021/08/03 01:01:37;;;;;;;;;0.00;0.00;;;;;18.39;68.37;100982.66;6089423;23;46476;-75
2021/08/03 01:04:02;;;;;;;;;0.00;0.00;;;;;18.38;68.49;100990.59;6089196;23;58101;-75
2021/08/03 01:06:34;;;;;;;;;0.00;0.00;;;;;18.49;69.47;101007.91;6089632;23;45353;-75
2021/08/03 01:09:05;;;;;;;;;0.25;0.00;;;;;18.50;69.66;100998.25;6090220;23;45309;-75
2021/08/03 01:11:45;;;;;;;;;0.00;0.00;;;;;18.51;69.36;100999.09;6087288;23;48380;-74
2021/08/03 01:14:18;;;;;;;;;0.00;0.00;;;;;18.43;68.94;100989.59;6087485;23;45234;-75
2021/08/03 01:16:49;;;;;;;;;0.00;0.00;;;;;18.49;69.25;100999.13;6090033;23;45353;-75
2021/08/03 01:19:36;;;;;;;;;0.00;0.00;;;;;18.35;69.56;100976.56;6088067;23;45460;-74
2021/08/03 01:22:39;;;;;;;;;0.00;0.00;;;;;18.50;69.47;100992.97;6089720;23;46089;-76
2021/08/03 01:25:26;;;;;;;;;0.00;0.00;;;;;18.56;69.05;100990.19;6089335;23;45317;-74
2021/08/03 01:28:13;;;;;;;;;0.00;0.00;;;;;18.58;68.86;100990.16;6089491;23;45420;-74
2021/08/03 01:30:45;;;;;;;;;0.00;0.00;;;;;18.51;69.46;100965.72;6089623;23;45218;-75
2021/08/03 01:33:12;;;;;;;;;0.00;0.00;;;;;18.49;69.53;100965.75;6089524;23;46126;-74
2021/08/03 01:35:42;;;;;;;;;0.00;0.00;;;;;18.61;69.40;100982.19;6087080;23;45708;-75
2021/08/03 01:38:09;;;;;;;;;0.00;0.00;;;;;18.66;68.64;100982.09;6089920;23;45351;-74
2021/08/03 01:40:36;;;;;;;;;0.00;0.00;;;;;18.47;69.04;100949.06;6087913;23;45590;-75
2021/08/03 01:43:02;;;;;;;;;0.00;0.00;;;;;18.56;69.02;100961.19;6088873;23;45434;-75
2021/08/03 01:45:27;;;;;;;;;0.00;0.00;;;;;18.68;69.26;100973.25;6089462;23;45349;-74
2021/08/03 01:47:54;;;;;;;;;1.00;0.00;;;;;18.52;69.35;100946.34;6089604;23;45304;-75
2021/08/03 01:50:21;;;;;;;;;0.00;0.00;;;;;18.51;68.39;100951.66;6087648;23;45425;-74
2021/08/03 01:52:47;;;;;;;;;0.00;0.00;;;;;18.49;68.84;100967.50;6089241;23;46330;-75
2021/08/03 01:55:13;;;;;;;;;0.00;0.00;;;;;18.44;69.16;100958.84;6089431;23;45299;-75
2021/08/03 01:57:43;;;;;;;;;0.00;0.00;;;;;18.45;69.42;100961.44;6089149;23;45306;-74
2021/08/03 02:00:09;;;;;;;;;0.00;0.00;;;;;18.32;69.51;100950.25;6089809;23;45277;-76
2021/08/03 02:02:34;;;;;;;;;1.00;0.00;;;;;18.16;69.79;100956.75;6089121;23;45291;-74
2021/08/03 02:05:00;;;;;;;;;0.25;0.25;;;;;17.98;69.40;100949.13;6089074;23;45314;-75
2021/08/03 02:07:27;;;;;;;;;1.25;0.00;;;;;18.04;70.32;100965.72;6089542;23;45273;-74
2021/08/03 02:09:54;;;;;;;;;0.00;0.00;;;;;18.08;70.51;100970.91;6089580;23;45587;-75
2021/08/03 02:12:19;;;;;;;;;0.00;0.00;;;;;18.06;70.31;100956.91;6088316;23;45952;-75
2021/08/03 02:14:45;;;;;;;;;0.00;0.00;;;;;18.12;70.48;100963.84;6089113;23;45321;-75
2021/08/03 02:17:29;;;;;;;;;1.00;1.00;;;;;18.15;70.23;100952.38;6089256;23;45336;-75
2021/08/03 02:19:54;;;;;;;;;1.00;0.00;;;;;18.03;70.60;100961.34;6089694;23;45309;-75
2021/08/03 02:22:20;;;;;;;;;0.00;0.00;;;;;18.07;70.75;100978.84;6089171;23;46323;-75
2021/08/03 02:24:46;;;;;;;;;0.00;0.00;;;;;17.95;70.78;100958.88;6089149;23;45344;-75
2021/08/03 02:27:11;;;;;;;;;0.00;0.00;;;;;18.11;71.34;100972.66;6086523;23;45345;-74
2021/08/03 02:29:41;;;;;;;;;0.00;0.00;;;;;18.17;71.34;100976.94;6089648;23;45297;-75
2021/08/03 02:32:13;;;;;;;;;0.00;0.00;;;;;18.15;70.69;100961.16;6089151;23;46539;-76
2021/08/03 02:34:58;;;;;;;;;0.00;0.00;;;;;18.01;70.76;100955.25;6089034;23;45368;-75
2021/08/03 02:37:30;;;;;;;;;0.75;0.75;;;;;18.02;70.94;100976.28;6089001;23;45420;-75
2021/08/03 02:39:55;;;;;;;;;0.00;0.00;;;;;18.00;70.74;100964.91;6088005;23;45352;-76
2021/08/03 02:42:22;;;;;;;;;0.00;0.00;;;;;17.97;70.78;100973.75;6088525;23;46090;-76
2021/08/03 02:44:54;;;;;;;;;0.00;0.00;;;;;17.98;70.85;100978.09;6087254;23;45389;-75
2021/08/03 02:47:26;;;;;;;;;0.00;0.00;;;;;17.96;71.49;100969.38;6087197;23;45337;-75
2021/08/03 02:49:52;;;;;;;;;0.25;0.00;;;;;17.84;71.25;100952.03;6089470;23;45313;-75
2021/08/03 02:52:21;;;;;;;;;1.00;0.00;;;;;17.85;71.80;100961.66;6086779;23;46315;-75
2021/08/03 02:54:53;;;;;;;;;1.00;0.00;;;;;17.79;71.80;100953.88;6087088;23;45418;-74
2021/08/03 02:57:20;;;;;;;;;0.00;0.00;;;;;17.73;71.57;100939.06;6086819;23;45352;-75
2021/08/03 02:59:50;;;;;;;;;0.25;0.00;;;;;17.64;71.94;100936.59;6089263;23;45320;-75
2021/08/03 03:02:18;;;;;;;;;0.00;0.00;;;;;17.73;71.97;100954.84;6088961;23;45860;-75
2021/08/03 03:04:53;;;;;;;;;0.75;0.00;;;;;17.63;71.89;100955.03;6089046;23;45584;-75
2021/08/03 03:07:25;;;;;;;;;0.00;0.00;;;;;17.67;71.87;100949.69;6089064;23;45531;-75
2021/08/03 03:09:53;;;;;;;;;0.00;0.00;;;;;17.65;72.70;100962.03;6086713;23;45581;-75
2021/08/03 03:12:20;;;;;;;;;0.50;0.00;;;;;17.50;72.48;100939.47;6088439;23;45317;-74
2021/08/03 03:14:47;;;;;;;;;0.00;0.00;;;;;17.70;72.98;100954.06;6086916;23;45426;-74
2021/08/03 03:17:15;;;;;;;;;0.00;0.00;;;;;17.75;72.24;100935.53;6089153;23;45350;-74
2021/08/03 03:19:42;;;;;;;;;0.00;0.00;;;;;17.84;72.08;100936.25;6088939;23;45275;-75
2021/08/03 03:22:08;;;;;;;;;0.00;0.00;;;;;17.80;71.88;100929.28;6088890;23;45161;-74
2021/08/03 03:24:36;;;;;;;;;0.00;0.00;;;;;17.90;71.94;100945.78;6088253;23;45316;-75
2021/08/03 03:27:03;;;;;;;;;0.00;0.00;;;;;17.94;71.88;100943.94;6088923;23;45604;-75
2021/08/03 03:29:30;;;;;;;;;0.00;0.00;;;;;17.94;72.09;100938.69;6088898;23;45253;-75
2021/08/03 03:31:56;;;;;;;;;0.75;0.00;;;;;17.88;72.08;100931.78;6088588;23;45567;-75
2021/08/03 03:34:24;;;;;;;;;0.00;0.00;;;;;17.84;72.11;100933.63;6088283;23;45331;-74
2021/08/03 03:36:51;;;;;;;;;0.00;0.00;;;;;17.72;72.35;100925.94;6088660;23;45387;-75
2021/08/03 03:39:18;;;;;;;;;0.00;0.00;;;;;17.75;72.32;100939.03;6088647;23;45335;-74
2021/08/03 03:41:48;;;;;;;;;0.00;0.00;;;;;17.68;72.24;100934.78;6088516;23;46157;-74
2021/08/03 03:44:13;;;;;;;;;0.50;0.50;;;;;17.70;71.93;100941.75;6088975;23;45627;-74
2021/08/03 03:46:54;;;;;;;;;0.00;0.00;;;;;17.71;72.29;100934.72;6088620;23;45373;-74
2021/08/03 03:49:23;;;;;;;;;0.00;0.00;;;;;17.70;72.12;100946.16;6088775;23;45292;-74
2021/08/03 03:51:49;;;;;;;;;0.00;0.00;;;;;17.60;71.73;100937.53;6087748;23;46156;-74
2021/08/03 03:54:22;;;;;;;;;0.25;0.25;;;;;17.61;72.62;100939.28;6087616;23;45383;-74
2021/08/03 03:56:53;;;;;;;;;0.00;0.00;;;;;17.72;72.78;100953.13;6087116;23;45271;-75
2021/08/03 03:59:20;;;;;;;;;1.00;0.00;;;;;17.82;72.48;100951.19;6089354;23;45325;-75
2021/08/03 04:01:49;;;;;;;;;0.00;0.00;;;;;17.70;72.25;100941.75;6088544;23;45277;-76
2021/08/03 04:04:17;;;;;;;;;0.75;0.00;;;;;17.66;71.75;100960.25;6088443;23;45561;-73
2021/08/03 04:06:43;;;;;;;;;0.00;0.00;;;;;17.58;71.50;100950.72;6086489;23;45343;-74
2021/08/03 04:09:23;;;;;;;;;0.00;0.00;;;;;17.15;71.90;100893.59;6088639;23;45341;-77
2021/08/03 04:11:50;;;;;;;;;0.00;0.00;;;;;17.45;71.74;100950.06;6087988;23;45323;-74
2021/08/03 04:14:22;;;;;;;;;0.00;0.00;;;;;17.54;71.76;100954.31;6088641;23;45397;-76
2021/08/03 04:16:49;;;;;;;;;0.50;0.00;;;;;17.44;71.62;100952.72;6088697;23;45334;-76
2021/08/03 04:19:14;;;;;;;;;0.00;0.00;;;;;17.47;72.94;100953.56;6088898;23;45383;-77
2021/08/03 04:21:40;;;;;;;;;0.00;0.00;;;;;17.45;72.41;100947.44;6087913;23;50073;-76
2021/08/03 04:24:05;;;;;;;;;0.00;0.00;;;;;17.59;71.86;100951.59;6087766;23;45332;-76
2021/08/03 04:26:31;;;;;;;;;0.00;0.00;;;;;17.44;71.54;100924.66;6088573;23;45552;-76
2021/08/03 04:28:57;;;;;;;;;1.00;0.00;;;;;17.53;72.12;100933.28;6088484;23;45314;-76
2021/08/03 04:31:22;;;;;;;;;0.00;0.00;;;;;17.65;72.07;100951.50;6085829;23;47297;-74
2021/08/03 04:33:50;;;;;;;;;0.00;0.00;;;;;17.72;71.83;100954.88;6088078;23;45361;-77
2021/08/03 04:36:15;;;;;;;;;0.00;0.00;;;;;17.76;71.01;100950.44;6088485;23;45214;-76
2021/08/03 04:38:41;;;;;;;;;0.00;0.00;;;;;17.79;70.52;100951.25;6087620;23;45247;-77
2021/08/03 04:41:06;;;;;;;;;0.00;0.00;;;;;17.73;71.11;100940.81;6088551;23;51878;-76
2021/08/03 04:43:31;;;;;;;;;0.00;0.00;;;;;17.50;70.51;100893.84;6089834;23;51249;-74
2021/08/03 04:45:56;;;;;;;;;0.00;0.00;;;;;17.82;70.04;100953.81;6090253;23;45443;-74
2021/08/03 04:48:22;;;;;;;;;0.00;0.00;;;;;17.80;70.19;100937.19;6088200;23;45215;-74
2021/08/03 04:50:47;;;;;;;;;0.25;0.00;;;;;17.72;69.86;100923.28;6087596;23;56200;-75
2021/08/03 04:53:12;;;;;;;;;0.00;0.00;;;;;17.89;69.95;100945.81;6089245;23;45274;-74
2021/08/03 04:55:37;;;;;;;;;0.50;0.00;;;;;17.89;69.25;100951.97;6087666;23;57064;-74
2021/08/03 04:58:03;;;;;;;;;0.00;0.00;;;;;17.91;69.65;100951.91;6088654;23;45420;-76
2021/08/03 05:00:29;;;;;;;;;0.00;0.00;;;;;17.86;70.00;100949.38;6089422;23;45337;-76
2021/08/03 05:02:54;;;;;;;;;0.00;0.00;;;;;17.83;69.49;100946.81;6089704;23;45761;-76
2021/08/03 05:05:19;;;;;;;;;0.00;0.00;;;;;17.71;70.14;100932.94;6089926;23;45315;-76
2021/08/03 05:07:58;;;;;;;;;0.00;0.00;;;;;17.74;69.79;100942.56;6089381;23;45261;-74
2021/08/03 05:10:25;;;;;;;;;0.00;0.00;;;;;17.74;69.99;100934.69;6088651;23;45347;-77
2021/08/03 05:12:51;;;;;;;;;0.00;0.00;;;;;17.60;70.45;100917.38;6088936;23;45301;-77
2021/08/03 05:15:16;;;;;;;;;0.00;0.00;;;;;17.69;69.79;100934.75;6087348;23;45282;-76
2021/08/03 05:17:41;;;;;;;;;1.00;0.00;;;;;17.67;70.41;100923.38;6090083;23;45309;-76
2021/08/03 05:20:07;;;;;;;;;0.00;0.00;;;;;17.73;69.65;100941.69;6089988;23;45269;-75
2021/08/03 05:22:33;;;;;;;;;0.00;0.00;;;;;17.75;69.76;100938.16;6088005;23;45547;-76
2021/08/03 05:24:59;;;;;;;;;0.00;0.00;;;;;17.71;69.95;100935.56;6088810;23;45261;-77
2021/08/03 05:27:24;;;;;;;;;0.00;0.00;;;;;17.67;69.82;100928.63;6089505;23;45441;-76
2021/08/03 05:29:49;;;;;;;;;0.00;0.00;;;;;17.77;69.55;100949.53;6087217;23;46371;-75
2021/08/03 05:32:15;;;;;;;;;1.00;0.00;;;;;17.83;69.76;100949.44;6088858;23;45360;-76
2021/08/03 05:34:40;;;;;;;;;0.00;0.00;;;;;17.88;69.12;100952.00;6089020;23;45360;-77
2021/08/03 05:37:06;;;;;;;;;0.00;0.00;;;;;17.83;69.23;100946.81;6088182;23;50390;-76
2021/08/03 05:39:31;;;;;;;;;0.00;0.00;;;;;17.85;69.36;100958.16;6089352;23;45302;-76
2021/08/03 05:41:58;;;;;;;;;0.00;0.00;;;;;17.75;69.35;100948.69;6088618;23;45552;-76
2021/08/03 05:44:23;;;;;;;;;0.00;0.00;;;;;17.62;68.97;100938.41;6089859;23;45262;-75
2021/08/03 05:46:48;;;;;;;;;0.00;0.00;;;;;17.65;69.53;100946.25;6089611;23;45213;-76
2021/08/03 05:49:13;;;;;;;;;0.00;0.00;;;;;17.56;69.72;100955.16;6086832;23;46135;-76
2021/08/03 05:51:39;;;;;;;;;0.00;0.00;;;;;17.27;69.56;100951.25;6088144;23;51637;-76
2021/08/03 05:54:04;;;;;;;;;0.00;0.00;;;;;16.92;70.13;100937.72;6086740;23;45292;-76
2021/08/03 05:56:31;;;;;;;;;0.00;0.00;;;;;16.92;71.10;100971.91;6089016;23;45543;-76
2021/08/03 05:58:56;;;;;;;;;0.00;0.00;;;;;16.74;70.56;100948.47;6089175;23;46265;-75
2021/08/03 06:01:22;;;;;;;;;0.00;0.00;;;;;16.73;70.10;100952.88;6089011;23;45223;-77
2021/08/03 06:03:47;;;;;;;;;0.00;0.00;;;;;16.93;70.58;100975.38;6088565;23;45317;-78
2021/08/03 06:06:15;;;;;;;;;0.00;0.00;;;;;16.89;71.43;100974.56;6089221;23;45206;-77
2021/08/03 06:08:42;;;;;;;;;0.00;0.00;;;;;16.77;71.39;100969.47;6086600;23;47036;-76
2021/08/03 06:11:17;;;;;;;;;0.00;0.00;;;;;16.79;71.17;100983.47;6088795;23;45416;-77
2021/08/03 06:13:47;;;;;;;;;0.00;0.00;;;;;16.81;71.06;100979.06;6086518;23;45415;-78
2021/08/03 06:16:17;;;;;;;;;0.00;0.00;;;;;16.80;71.17;100978.19;6089053;23;45280;-78
2021/08/03 06:18:44;;;;;;;;;0.00;0.00;;;;;16.79;71.24;100984.34;6088450;23;45934;-77
2021/08/03 06:21:10;;;;;;;;;0.00;0.00;;;;;16.75;71.66;100974.75;6088404;23;45333;-77
2021/08/03 06:23:37;;;;;;;;;0.00;0.00;;;;;16.80;71.25;100979.94;6088295;23;45315;-77
2021/08/03 06:26:03;;;;;;;;;0.00;0.00;;;;;16.85;71.51;100973.72;6089637;23;45258;-78
2021/08/03 06:28:29;;;;;;;;;0.00;0.00;;;;;17.04;71.14;100983.13;6088776;23;45902;-77
2021/08/03 06:30:55;;;;;;;;;0.00;0.00;;;;;17.21;71.22;100986.41;6088525;23;45847;-76
2021/08/03 06:33:22;;;;;;;;;0.00;0.00;;;;;17.44;71.26;100985.19;6087809;22;45319;-76
2021/08/03 06:35:49;;;;;;;;;0.00;0.00;;;;;17.57;70.22;100990.22;6086727;23;45346;-76
2021/08/03 06:38:14;;;;;;;;;0.00;0.00;;;;;17.48;69.40;100978.09;6088933;23;45473;-77
2021/08/03 06:40:48;;;;;;;;;0.00;0.00;;;;;17.48;68.99;100984.25;6086341;23;45264;-77
2021/08/03 06:43:17;;;;;;;;;0.00;0.00;;;;;17.46;69.05;100978.13;6088149;23;45320;-78
2021/08/03 06:45:46;;;;;;;;;0.00;0.00;;;;;17.62;69.26;100987.53;6088520;23;45211;-77
2021/08/03 06:48:20;;;;;;;;;0.00;0.00;;;;;17.81;69.02;100994.22;6087631;23;45346;-77
2021/08/03 06:50:53;;;;;;;;;0.00;0.00;;;;;17.94;68.59;100999.25;6085559;23;45317;-75
2021/08/03 06:53:21;;;;;;;;;0.00;0.00;;;;;17.81;68.45;100986.31;6086619;23;45328;-76
2021/08/03 06:55:48;;;;;;;;;0.00;0.00;;;;;17.83;68.99;100978.41;6084938;23;45345;-75
2021/08/03 06:58:26;;;;;;;;;0.00;0.00;;;;;17.85;69.10;100982.72;6075317;23;45333;-76
2021/08/03 07:00:53;;;;;;;;;0.00;0.00;;;;;18.03;68.36;100992.94;6083361;23;45281;-78
2021/08/03 07:03:24;;;;;;;;;0.00;0.00;;;;;18.11;67.95;100991.94;6087224;23;45324;-75
2021/08/03 07:05:56;;;;;;;;;0.00;0.00;;;;;18.00;67.70;100961.44;6086209;23;45419;-75
2021/08/03 07:08:21;;;;;;;;;0.00;0.00;;;;;18.23;67.37;101011.06;6086873;23;45333;-76
2021/08/03 07:10:52;;;;;;;;;0.00;0.00;;;;;18.16;67.44;100999.75;6090029;23;45438;-79
2021/08/03 07:13:18;;;;;;;;;0.25;0.00;;;;;18.07;67.26;100992.88;6087172;23;45269;-79
2021/08/03 07:15:45;;;;;;;;;0.00;0.00;;;;;18.09;67.20;100998.09;6084580;23;45485;-80
2021/08/03 07:18:10;;;;;;;;;0.00;0.00;;;;;18.07;67.06;100998.13;6085627;23;46100;-80
2021/08/03 07:20:39;;;;;;;;;0.00;0.00;;;;;18.15;67.40;101007.69;6086134;23;45424;-79
2021/08/03 07:23:07;;;;;;;;;0.25;0.00;;;;;18.04;67.47;101010.50;6088341;23;45396;-80
2021/08/03 07:25:33;;;;;;;;;0.00;0.00;;;;;17.82;67.67;101002.97;6087398;23;45309;-79
2021/08/03 07:27:58;;;;;;;;;0.00;0.00;;;;;17.64;67.38;100975.22;6086631;23;45382;-80
2021/08/03 07:30:24;;;;;;;;;0.00;0.00;;;;;17.93;67.43;101014.22;6086651;23;45424;-80
2021/08/03 07:32:49;;;;;;;;;0.00;0.00;;;;;17.90;67.70;101022.16;6086028;23;45345;-79
2021/08/03 07:35:15;;;;;;;;;0.00;0.00;;;;;17.95;68.10;101022.94;6087506;23;45583;-80
2021/08/03 07:37:40;;;;;;;;;0.00;0.00;;;;;18.06;67.25;101019.25;6086015;23;46372;-80
2021/08/03 07:40:07;;;;;;;;;0.00;0.00;;;;;18.07;66.78;101023.63;6087526;23;45379;-80
2021/08/03 07:42:33;;;;;;;;;0.00;0.00;;;;;18.07;66.78;101032.38;6086257;23;45482;-79
2021/08/03 07:44:58;;;;;;;;;0.00;0.00;;;;;18.13;66.04;101020.88;6087175;23;45302;-79
2021/08/03 07:47:24;;;;;;;;;0.00;0.00;;;;;18.27;66.00;101004.84;6083062;23;48320;-76
2021/08/03 07:49:51;;;;;;;;;0.00;0.00;;;;;18.54;65.86;101022.75;6086422;23;45299;-77
2021/08/03 07:52:17;;;;;;;;;0.00;0.00;;;;;18.63;65.55;101012.03;6086678;23;45483;-75
2021/08/03 07:54:42;;;;;;;;;0.00;0.00;;;;;18.77;64.98;101001.19;6086337;23;45406;-77
2021/08/03 07:57:08;;;;;;;;;0.50;0.00;;;;;18.85;64.80;100995.75;6086591;23;45263;-76
2021/08/03 07:59:33;;;;;;;;;0.00;0.00;;;;;19.00;65.10;101002.47;6087036;23;45144;-76
2021/08/03 08:01:58;;;;;;;;;0.00;0.00;;;;;19.26;64.52;101013.34;6084157;23;55493;-76
2021/08/03 08:04:24;;;;;;;;;0.00;0.00;;;;;19.32;63.93;101021.09;6086310;23;45431;-76
2021/08/03 08:06:49;;;;;;;;;0.00;0.00;;;;;19.32;63.71;101019.34;6085147;23;55696;-75
2021/08/03 08:09:14;;;;;;;;;0.00;0.00;;;;;19.17;63.71;101010.00;6087064;23;45347;-76
2021/08/03 08:11:40;;;;;;;;;0.00;0.00;;;;;19.25;63.19;101017.75;6087334;23;45317;-76
2021/08/03 08:14:05;;;;;;;;;0.00;0.00;;;;;19.16;63.48;101020.59;6088162;23;45390;-76
2021/08/03 08:16:31;;;;;;;;;0.00;0.00;;;;;19.03;62.95;101004.16;6086983;23;45248;-76
2021/08/03 08:18:56;;;;;;;;;0.00;0.00;;;;;18.99;62.32;101020.03;6087436;23;45395;-75
2021/08/03 08:21:21;;;;;;;;;0.00;0.00;;;;;18.91;62.31;101008.81;6089292;23;45352;-76
2021/08/03 08:23:47;;;;;;;;;0.00;0.00;;;;;18.94;62.25;100999.94;6089573;23;45367;-76
2021/08/03 08:26:12;;;;;;;;;0.00;0.00;;;;;18.94;61.91;101005.22;6089015;23;46682;-77
2021/08/03 08:28:38;;;;;;;;;0.00;0.00;;;;;19.02;62.23;101002.44;6088887;23;45406;-75
2021/08/03 08:31:03;;;;;;;;;0.00;0.00;;;;;19.10;62.26;100995.22;6088565;23;45386;-77
2021/08/03 08:33:28;;;;;;;;;0.00;0.00;;;;;19.14;61.84;100982.84;6088439;23;45358;-76
2021/08/03 08:35:54;;;;;;;;;0.00;0.00;;;;;19.36;61.39;100997.25;6088205;23;45278;-75
2021/08/03 08:38:20;;;;;;;;;0.50;0.00;;;;;19.42;60.34;101000.66;6087739;23;45271;-75
2021/08/03 08:40:45;;;;;;;;;0.00;0.00;;;;;19.47;59.36;101002.28;6088386;23;45368;-75
2021/08/03 08:43:13;;;;;;;;;0.00;0.00;;;;;19.44;59.75;101014.66;6088986;23;45408;-77
2021/08/03 08:45:40;;;;;;;;;0.00;0.00;;;;;19.55;58.90;100999.44;6085832;23;48426;-76
2021/08/03 08:48:10;;;;;;;;;0.00;0.00;;;;;19.62;59.60;101008.06;6078841;23;45848;-76
2021/08/03 08:50:35;;;;;;;;;1.00;0.00;;;;;19.60;58.20;100994.06;6087908;23;45319;-75
2021/08/03 08:53:01;;;;;;;;;0.00;0.00;;;;;19.88;58.87;101002.13;6088592;23;45448;-75
2021/08/03 08:55:26;;;;;;;;;1.00;0.00;;;;;19.94;57.45;101005.53;6087703;23;45719;-76
2021/08/03 08:57:52;;;;;;;;;0.00;0.00;;;;;19.79;56.17;100993.56;6086067;23;45394;-76
2021/08/03 09:00:19;;;;;;;;;0.00;0.00;;;;;19.94;56.56;101006.38;6087613;23;45321;-76
2021/08/03 09:02:47;;;;;;;;;0.00;0.00;;;;;19.98;56.70;101005.41;6086798;23;45389;-76
2021/08/03 09:05:14;;;;;;;;;0.00;0.00;;;;;19.83;55.55;100996.09;6086814;23;46495;-75
2021/08/03 09:07:50;;;;;;;;;0.00;0.00;;;;;19.83;56.85;101006.66;6087280;23;45409;-76
2021/08/03 09:10:35;;;;;;;;;0.00;0.00;;;;;19.94;57.37;101010.81;6084456;23;45382;-74
2021/08/03 09:13:07;;;;;;;;;0.00;0.00;;;;;20.06;56.56;101012.28;6086779;23;45308;-76
2021/08/03 09:15:35;;;;;;;;;0.00;0.00;;;;;20.12;56.43;100985.66;6087376;23;45459;-75
2021/08/03 09:18:30;;;;;;;;;0.00;0.00;;;;;20.46;55.27;101000.59;6087933;23;45497;-76
2021/08/03 09:20:55;;;;;;;;;0.00;0.00;;;;;20.60;55.20;100979.03;6087284;23;45354;-76
2021/08/03 09:23:42;;;;;;;;;0.00;0.00;;;;;20.95;55.02;101012.44;6087840;23;45313;-76
2021/08/03 09:26:09;;;;;;;;;0.00;0.00;;;;;20.93;55.28;101009.84;6087781;23;45473;-76
2021/08/03 09:28:34;;;;;;;;;0.00;0.00;;;;;20.78;54.82;100995.25;6085366;23;45401;-75
2021/08/03 09:31:03;;;;;;;;;0.00;0.00;;;;;20.74;55.07;101012.16;6086492;23;45598;-74
2021/08/03 09:33:29;;;;;;;;;0.00;0.00;;;;;20.51;55.17;101003.09;6087091;23;45403;-76
2021/08/03 09:35:55;;;;;;;;;0.00;0.00;;;;;20.48;54.60;100982.91;6086443;23;45433;-75
2021/08/03 09:38:21;;;;;;;;;1.00;1.00;;;;;20.72;53.69;101014.84;6083839;23;45585;-75
2021/08/03 09:40:48;;;;;;;;;0.00;0.00;;;;;20.74;54.71;100996.28;6083682;23;45301;-76
2021/08/03 09:43:16;;;;;;;;;1.00;0.00;;;;;21.00;54.68;101013.16;6078387;23;45286;-75
2021/08/03 09:45:44;;;;;;;;;0.00;0.00;;;;;21.12;54.19;101018.06;6086739;23;46174;-75
2021/08/03 09:48:12;;;;;;;;;0.00;0.00;;;;;21.21;54.42;101013.41;6086067;23;45408;-73
2021/08/03 09:51:07;;;;;;;;;0.00;0.00;;;;;21.01;55.13;101009.63;6086041;23;45442;-78
2021/08/03 09:53:38;;;;;;;;;0.00;0.00;;;;;20.82;55.83;101011.94;6087055;23;45357;-76
2021/08/03 09:56:05;;;;;;;;;0.00;0.00;;;;;20.53;56.60;101009.22;6085705;23;45875;-75
2021/08/03 09:58:31;;;;;;;;;1.00;1.00;;;;;20.33;56.95;100986.84;6084902;23;45359;-75
2021/08/03 10:01:17;;;;;;;;;0.00;0.00;;;;;20.33;57.72;101004.47;6084367;23;45353;-73
2021/08/03 10:03:43;;;;;;;;;0.00;0.00;;;;;20.45;57.92;101004.16;6082741;23;45301;-75
2021/08/03 10:06:09;;;;;;;;;0.00;0.00;;;;;20.59;58.05;101003.75;6085022;23;46191;-76
2021/08/03 10:08:34;;;;;;;;;0.00;0.00;;;;;20.53;56.58;101006.56;6085293;23;45329;-75
2021/08/03 10:10:59;;;;;;;;;0.00;0.00;;;;;20.30;56.74;101010.72;6083954;23;45409;-75
2021/08/03 10:13:25;;;;;;;;;0.00;0.00;;;;;20.06;56.78;101001.72;6086493;23;45395;-75
2021/08/03 10:15:50;;;;;;;;;0.00;0.00;;;;;19.97;57.57;100989.59;6084615;23;46233;-75
2021/08/03 10:18:15;;;;;;;;;0.00;0.00;;;;;20.11;57.16;100981.31;6083119;23;57164;-74
2021/08/03 10:20:45;;;;;;;;;0.00;0.00;;;;;20.33;57.16;100988.63;6085312;23;45708;-76
2021/08/03 10:23:10;;;;;;;;;0.00;0.00;;;;;20.48;56.56;100996.13;6085715;23;45258;-77
2021/08/03 10:25:39;;;;;;;;;0.00;0.00;;;;;20.63;56.47;100988.66;6083141;23;46963;-77
2021/08/03 10:28:29;;;;;;;;;0.25;0.25;;;;;20.85;56.23;101004.75;6085501;23;45423;-78
2021/08/03 10:30:55;;;;;;;;;0.00;0.00;;;;;21.18;55.45;101005.56;6085342;23;45303;-78
2021/08/03 10:33:43;;;;;;;;;0.25;0.25;;;;;21.42;54.22;100995.09;6083116;23;45359;-77
2021/08/03 10:36:29;;;;;;;;;0.00;0.00;;;;;21.41;54.68;100988.06;6085175;23;46324;-78
2021/08/03 10:39:12;;;;;;;;;2.25;1.00;;;;;21.44;55.12;100994.09;6085106;23;45497;-79
2021/08/03 10:41:56;;;;;;;;;0.25;0.25;;;;;21.56;54.67;100986.69;6085330;23;45354;-75
2021/08/03 10:44:39;;;;;;;;;0.00;0.00;;;;;21.72;54.04;100976.44;6085546;23;45339;-77
2021/08/03 10:47:24;;;;;;;;;0.00;0.00;;;;;21.74;52.76;100967.50;6084717;23;45381;-79
2021/08/03 10:50:06;;;;;;;;;0.00;0.00;;;;;21.45;52.82;100981.75;6084995;23;45340;-77
2021/08/03 10:52:46;;;;;;;;;0.00;0.00;;;;;21.30;53.13;100993.69;6085405;23;45558;-78
2021/08/03 10:55:30;;;;;;;;;0.00;0.00;;;;;21.08;54.15;100991.75;6085199;23;45338;-76
2021/08/03 10:58:25;;;;;;;;;0.00;0.00;;;;;20.88;54.17;100995.84;6085697;23;46249;-77
2021/08/03 11:01:01;;;;;;;;;0.00;0.00;;;;;20.57;54.02;100971.19;6103640;23;45226;-77
2021/08/03 11:03:36;;;;;;;;;0.00;0.00;;;;;20.59;54.71;101000.25;6085622;23;45734;-77
2021/08/03 11:06:10;;;;;;;;;0.00;0.00;;;;;20.62;54.38;101005.44;6081321;23;45427;-80
2021/08/03 11:08:43;;;;;;;;;0.00;0.00;;;;;20.59;54.53;101002.88;6084322;23;45635;-80
2021/08/03 11:11:10;;;;;;;;;0.00;0.00;;;;;20.40;55.87;100976.13;6083180;23;45350;-78
2021/08/03 11:13:42;;;;;;;;;0.00;0.00;;;;;20.73;55.49;100998.03;6081834;23;45428;-77
2021/08/03 11:16:13;;;;;;;;;0.00;0.00;;;;;20.80;55.75;100998.75;6085918;23;45504;-77
2021/08/03 11:18:43;;;;;;;;;0.00;0.00;;;;;20.85;55.69;101002.09;6084260;23;46640;-78
2021/08/03 11:21:16;;;;;;;;;0.00;0.00;;;;;20.75;54.88;100976.84;6082421;23;45915;-79
2021/08/03 11:24:14;;;;;;;;;0.00;0.00;;;;;20.96;54.61;101004.47;6084550;23;45442;-78
2021/08/03 11:26:54;;;;;;;;;0.00;0.00;;;;;21.05;54.14;100973.31;6084769;23;45480;-78
2021/08/03 11:29:31;;;;;;;;;0.00;0.00;;;;;21.15;54.54;100998.56;6082459;23;46661;-78
2021/08/03 11:32:09;;;;;;;;;0.00;0.00;;;;;21.14;54.48;100971.22;6084495;23;45366;-78